sensor_id;sensor_type;location;lat;lon;timestamp;pressure;altitude;pressure_sealevel;temperature;humidity
66880;BME280;53789;51.392;10.234;2023-01-04T00:00:09;99084.53;;;4.35;80.72
66880;BME280;53789;51.392;10.234;2023-01-04T00:00:29;99085.59;;;4.34;81.22
66880;BME280;53789;51.392;10.234;2023-01-04T00:00:50;99089.97;;;4.35;80.75
66880;BME280;53789;51.392;10.234;2023-01-04T00:01:15;99084.53;;;4.35;80.69
66880;BME280;53789;51.392;10.234;2023-01-04T00:01:36;99087.25;;;4.35;80.52
66880;BME280;53789;51.392;10.234;2023-01-04T00:01:56;99086.41;;;4.34;80.84
66880;BME280;53789;51.392;10.234;2023-01-04T00:02:16;99085.84;;;4.32;80.97
66880;BME280;53789;51.392;10.234;2023-01-04T00:02:37;99085.03;;;4.32;80.41
66880;BME280;53789;51.392;10.234;2023-01-04T00:02:57;99093.19;;;4.32;80.80
66880;BME280;53789;51.392;10.234;2023-01-04T00:03:17;99091.28;;;4.32;80.98
66880;BME280;53789;51.392;10.234;2023-01-04T00:03:38;99081.69;;;4.30;80.97
66880;BME280;53789;51.392;10.234;2023-01-04T00:03:59;99077.91;;;4.31;81.01
66880;BME280;53789;51.392;10.234;2023-01-04T00:04:19;99072.47;;;4.31;80.67
66880;BME280;53789;51.392;10.234;2023-01-04T00:04:39;99077.91;;;4.31;81.03
66880;BME280;53789;51.392;10.234;2023-01-04T00:04:59;99076.00;;;4.31;80.77
66880;BME280;53789;51.392;10.234;2023-01-04T00:05:20;99085.50;;;4.28;80.96
66880;BME280;53789;51.392;10.234;2023-01-04T00:05:40;99082.53;;;4.30;80.80
66880;BME280;53789;51.392;10.234;2023-01-04T00:06:03;99078.16;;;4.29;81.13
66880;BME280;53789;51.392;10.234;2023-01-04T00:06:24;99077.09;;;4.30;81.29
66880;BME280;53789;51.392;10.234;2023-01-04T00:06:44;99085.84;;;4.32;80.95
66880;BME280;53789;51.392;10.234;2023-01-04T00:07:04;99085.25;;;4.30;80.87
66880;BME280;53789;51.392;10.234;2023-01-04T00:07:25;99081.44;;;4.31;80.70
66880;BME280;53789;51.392;10.234;2023-01-04T00:07:45;99083.94;;;4.33;80.93
66880;BME280;53789;51.392;10.234;2023-01-04T00:08:05;99077.66;;;4.32;80.66
66880;BME280;53789;51.392;10.234;2023-01-04T00:08:26;99080.97;;;4.34;80.82
66880;BME280;53789;51.392;10.234;2023-01-04T00:08:47;99080.13;;;4.34;80.55
66880;BME280;53789;51.392;10.234;2023-01-04T00:09:08;99079.31;;;4.33;80.69
66880;BME280;53789;51.392;10.234;2023-01-04T00:09:28;99070.06;;;4.34;80.96
66880;BME280;53789;51.392;10.234;2023-01-04T00:09:48;99075.50;;;4.34;80.48
66880;BME280;53789;51.392;10.234;2023-01-04T00:10:09;99077.41;;;4.34;80.83
66880;BME280;53789;51.392;10.234;2023-01-04T00:10:29;99071.72;;;4.35;80.97
66880;BME280;53789;51.392;10.234;2023-01-04T00:10:49;99079.91;;;4.35;80.50
66880;BME280;53789;51.392;10.234;2023-01-04T00:11:15;99077.16;;;4.35;80.97
66880;BME280;53789;51.392;10.234;2023-01-04T00:11:36;99078.84;;;4.36;80.67
66880;BME280;53789;51.392;10.234;2023-01-04T00:11:56;99071.72;;;4.35;80.62
66880;BME280;53789;51.392;10.234;2023-01-04T00:12:17;99066.28;;;4.35;81.06
66880;BME280;53789;51.392;10.234;2023-01-04T00:12:37;99065.47;;;4.35;80.36
66880;BME280;53789;51.392;10.234;2023-01-04T00:12:58;99072.53;;;4.36;80.74
66880;BME280;53789;51.392;10.234;2023-01-04T00:13:18;99076.09;;;4.36;80.76
66880;BME280;53789;51.392;10.234;2023-01-04T00:13:39;99080.72;;;4.36;80.88
66880;BME280;53789;51.392;10.234;2023-01-04T00:13:59;99081.56;;;4.36;80.78
66880;BME280;53789;51.392;10.234;2023-01-04T00:14:19;99076.91;;;4.37;80.78
66880;BME280;53789;51.392;10.234;2023-01-04T00:14:40;99071.72;;;4.35;80.30
66880;BME280;53789;51.392;10.234;2023-01-04T00:15:00;99062.13;;;4.33;80.76
66880;BME280;53789;51.392;10.234;2023-01-04T00:15:21;99071.72;;;4.35;80.84
66880;BME280;53789;51.392;10.234;2023-01-04T00:15:41;99071.72;;;4.35;80.82
66880;BME280;53789;51.392;10.234;2023-01-04T00:16:07;99062.75;;;4.35;80.84
66880;BME280;53789;51.392;10.234;2023-01-04T00:16:28;99058.09;;;4.35;80.53
66880;BME280;53789;51.392;10.234;2023-01-04T00:16:48;99065.22;;;4.36;80.83
66880;BME280;53789;51.392;10.234;2023-01-04T00:17:08;99065.47;;;4.35;81.01
66880;BME280;53789;51.392;10.234;2023-01-04T00:17:29;99069.81;;;4.36;80.42
66880;BME280;53789;51.392;10.234;2023-01-04T00:17:49;99067.09;;;4.36;80.96
66880;BME280;53789;51.392;10.234;2023-01-04T00:18:09;99060.81;;;4.35;80.65
66880;BME280;53789;51.392;10.234;2023-01-04T00:18:30;99059.16;;;4.34;80.47
66880;BME280;53789;51.392;10.234;2023-01-04T00:18:52;99061.88;;;4.34;80.74
66880;BME280;53789;51.392;10.234;2023-01-04T00:19:13;99069.81;;;4.36;80.66
66880;BME280;53789;51.392;10.234;2023-01-04T00:19:33;99058.91;;;4.36;80.82
66880;BME280;53789;51.392;10.234;2023-01-04T00:19:53;99066.28;;;4.35;80.29
66880;BME280;53789;51.392;10.234;2023-01-04T00:20:13;99067.94;;;4.36;80.43
66880;BME280;53789;51.392;10.234;2023-01-04T00:20:34;99058.66;;;4.37;80.74
66880;BME280;53789;51.392;10.234;2023-01-04T00:20:54;99052.41;;;4.37;80.55
66880;BME280;53789;51.392;10.234;2023-01-04T00:21:23;99064.97;;;4.38;80.69
66880;BME280;53789;51.392;10.234;2023-01-04T00:21:44;99054.06;;;4.38;80.37
66880;BME280;53789;51.392;10.234;2023-01-04T00:22:04;99052.41;;;4.37;80.60
66880;BME280;53789;51.392;10.234;2023-01-04T00:22:25;99054.06;;;4.38;80.81
66880;BME280;53789;51.392;10.234;2023-01-04T00:22:45;99056.53;;;4.39;80.36
66880;BME280;53789;51.392;10.234;2023-01-04T00:23:05;99059.28;;;4.39;80.57
66880;BME280;53789;51.392;10.234;2023-01-04T00:23:27;99060.34;;;4.38;80.61
66880;BME280;53789;51.392;10.234;2023-01-04T00:23:49;99060.34;;;4.38;80.14
66880;BME280;53789;51.392;10.234;2023-01-04T00:24:10;99057.59;;;4.38;80.72
66880;BME280;53789;51.392;10.234;2023-01-04T00:24:30;99050.50;;;4.37;80.14
66880;BME280;53789;51.392;10.234;2023-01-04T00:24:50;99053.22;;;4.37;80.63
66880;BME280;53789;51.392;10.234;2023-01-04T00:25:11;99056.53;;;4.39;80.10
66880;BME280;53789;51.392;10.234;2023-01-04T00:25:31;99058.41;;;4.39;80.40
66880;BME280;53789;51.392;10.234;2023-01-04T00:25:51;99054.06;;;4.38;80.72
66880;BME280;53789;51.392;10.234;2023-01-04T00:26:17;99052.41;;;4.37;80.38
66880;BME280;53789;51.392;10.234;2023-01-04T00:26:38;99050.75;;;4.36;80.60
66880;BME280;53789;51.392;10.234;2023-01-04T00:26:58;99050.75;;;4.36;81.12
66880;BME280;53789;51.392;10.234;2023-01-04T00:27:18;99043.41;;;4.36;80.63
66880;BME280;53789;51.392;10.234;2023-01-04T00:27:39;99050.75;;;4.36;81.15
66880;BME280;53789;51.392;10.234;2023-01-04T00:27:59;99042.81;;;4.34;80.66
66880;BME280;53789;51.392;10.234;2023-01-04T00:28:19;99045.31;;;4.36;80.66
66880;BME280;53789;51.392;10.234;2023-01-04T00:28:41;99039.84;;;4.36;80.94
66880;BME280;53789;51.392;10.234;2023-01-04T00:29:06;99042.56;;;4.36;80.86
66880;BME280;53789;51.392;10.234;2023-01-04T00:29:26;99057.84;;;4.37;80.98
66880;BME280;53789;51.392;10.234;2023-01-04T00:29:47;99046.97;;;4.37;80.78
66880;BME280;53789;51.392;10.234;2023-01-04T00:30:08;99046.16;;;4.36;81.00
66880;BME280;53789;51.392;10.234;2023-01-04T00:30:28;99040.09;;;4.34;80.58
66880;BME280;53789;51.392;10.234;2023-01-04T00:30:48;99039.03;;;4.35;80.99
66880;BME280;53789;51.392;10.234;2023-01-04T00:31:12;99037.13;;;4.36;81.02
66880;BME280;53789;51.392;10.234;2023-01-04T00:31:33;99035.25;;;4.36;80.89
66880;BME280;53789;51.392;10.234;2023-01-04T00:31:54;99044.00;;;4.38;80.98
66880;BME280;53789;51.392;10.234;2023-01-04T00:32:14;99034.16;;;4.37;81.17
66880;BME280;53789;51.392;10.234;2023-01-04T00:32:35;99028.72;;;4.37;80.60
66880;BME280;53789;51.392;10.234;2023-01-04T00:32:58;99035.81;;;4.38;80.90
66880;BME280;53789;51.392;10.234;2023-01-04T00:33:18;99032.53;;;4.36;81.13
66880;BME280;53789;51.392;10.234;2023-01-04T00:33:39;99033.09;;;4.38;81.00
66880;BME280;53789;51.392;10.234;2023-01-04T00:34:02;99035.81;;;4.38;80.78
66880;BME280;53789;51.392;10.234;2023-01-04T00:34:22;99035.00;;;4.38;80.52
66880;BME280;53789;51.392;10.234;2023-01-04T00:34:43;99033.09;;;4.38;81.24
66880;BME280;53789;51.392;10.234;2023-01-04T00:35:03;99037.47;;;4.39;81.08
66880;BME280;53789;51.392;10.234;2023-01-04T00:35:23;99020.53;;;4.37;81.15
66880;BME280;53789;51.392;10.234;2023-01-04T00:35:44;99042.31;;;4.37;81.15
66880;BME280;53789;51.392;10.234;2023-01-04T00:36:11;99045.91;;;4.38;80.92
66880;BME280;53789;51.392;10.234;2023-01-04T00:36:33;99035.25;;;4.36;81.28
66880;BME280;53789;51.392;10.234;2023-01-04T00:36:53;99025.16;;;4.37;80.93
66880;BME280;53789;51.392;10.234;2023-01-04T00:37:13;99038.53;;;4.38;81.04
66880;BME280;53789;51.392;10.234;2023-01-04T00:37:33;99035.00;;;4.38;81.53
66880;BME280;53789;51.392;10.234;2023-01-04T00:37:54;99032.03;;;4.39;81.20
66880;BME280;53789;51.392;10.234;2023-01-04T00:38:14;99033.69;;;4.40;81.05
66880;BME280;53789;51.392;10.234;2023-01-04T00:38:35;99034.75;;;4.39;81.58
66880;BME280;53789;51.392;10.234;2023-01-04T00:38:58;99028.25;;;4.40;81.92
66880;BME280;53789;51.392;10.234;2023-01-04T00:39:19;99033.69;;;4.40;81.23
66880;BME280;53789;51.392;10.234;2023-01-04T00:39:39;99035.25;;;4.36;81.09
66880;BME280;53789;51.392;10.234;2023-01-04T00:40:00;99025.66;;;4.34;81.49
66880;BME280;53789;51.392;10.234;2023-01-04T00:40:20;99016.19;;;4.36;81.30
66880;BME280;53789;51.392;10.234;2023-01-04T00:40:40;99039.59;;;4.37;81.06
66880;BME280;53789;51.392;10.234;2023-01-04T00:41:02;99021.38;;;4.38;81.35
66880;BME280;53789;51.392;10.234;2023-01-04T00:41:22;99024.94;;;4.38;80.98
66880;BME280;53789;51.392;10.234;2023-01-04T00:41:48;99024.94;;;4.38;81.07
66880;BME280;53789;51.392;10.234;2023-01-04T00:42:08;99025.75;;;4.39;81.43
66880;BME280;53789;51.392;10.234;2023-01-04T00:42:29;99021.13;;;4.39;81.36
66880;BME280;53789;51.392;10.234;2023-01-04T00:42:49;99028.00;;;4.42;81.45
66880;BME280;53789;51.392;10.234;2023-01-04T00:43:09;99032.59;;;4.41;81.39
66880;BME280;53789;51.392;10.234;2023-01-04T00:43:30;99028.81;;;4.42;81.37
66880;BME280;53789;51.392;10.234;2023-01-04T00:43:50;99019.56;;;4.43;81.19
66880;BME280;53789;51.392;10.234;2023-01-04T00:44:11;99027.75;;;4.43;81.50
66880;BME280;53789;51.392;10.234;2023-01-04T00:44:33;99014.38;;;4.42;81.32
66880;BME280;53789;51.392;10.234;2023-01-04T00:44:53;99027.41;;;4.40;81.26
66880;BME280;53789;51.392;10.234;2023-01-04T00:45:14;99012.72;;;4.41;81.12
66880;BME280;53789;51.392;10.234;2023-01-04T00:45:34;99019.81;;;4.42;81.16
66880;BME280;53789;51.392;10.234;2023-01-04T00:45:54;99023.38;;;4.42;81.10
66880;BME280;53789;51.392;10.234;2023-01-04T00:46:15;99015.19;;;4.42;81.09
66880;BME280;53789;51.392;10.234;2023-01-04T00:46:35;99017.91;;;4.42;81.58
66880;BME280;53789;51.392;10.234;2023-01-04T00:46:58;99021.22;;;4.44;80.96
66880;BME280;53789;51.392;10.234;2023-01-04T00:47:18;99021.22;;;4.44;81.09
66880;BME280;53789;51.392;10.234;2023-01-04T00:47:38;99022.88;;;4.45;81.58
66880;BME280;53789;51.392;10.234;2023-01-04T00:47:59;99002.13;;;4.44;80.92
66880;BME280;53789;51.392;10.234;2023-01-04T00:48:19;99014.94;;;4.44;81.25
66880;BME280;53789;51.392;10.234;2023-01-04T00:48:40;99017.34;;;4.40;80.99
66880;BME280;53789;51.392;10.234;2023-01-04T00:49:00;99009.19;;;4.40;81.27
66880;BME280;53789;51.392;10.234;2023-01-04T00:49:21;99013.53;;;4.41;80.74
66880;BME280;53789;51.392;10.234;2023-01-04T00:49:41;99008.09;;;4.41;81.55
66880;BME280;53789;51.392;10.234;2023-01-04T00:50:01;99008.34;;;4.40;81.05
66880;BME280;53789;51.392;10.234;2023-01-04T00:50:22;99009.19;;;4.40;81.26
66880;BME280;53789;51.392;10.234;2023-01-04T00:50:43;99003.72;;;4.40;81.31
66880;BME280;53789;51.392;10.234;2023-01-04T00:51:04;99004.53;;;4.41;80.82
66880;BME280;53789;51.392;10.234;2023-01-04T00:51:25;99006.22;;;4.42;80.84
66880;BME280;53789;51.392;10.234;2023-01-04T00:51:45;99010.00;;;4.41;81.31
66880;BME280;53789;51.392;10.234;2023-01-04T00:52:06;99008.59;;;4.38;81.43
66880;BME280;53789;51.392;10.234;2023-01-04T00:52:26;99011.06;;;4.40;81.14
66880;BME280;53789;51.392;10.234;2023-01-04T00:52:48;99012.72;;;4.41;80.82
66880;BME280;53789;51.392;10.234;2023-01-04T00:53:10;98997.19;;;4.41;81.25
66880;BME280;53789;51.392;10.234;2023-01-04T00:53:30;99011.66;;;4.42;81.24
66880;BME280;53789;51.392;10.234;2023-01-04T00:53:50;99005.34;;;4.41;81.13
66880;BME280;53789;51.392;10.234;2023-01-04T00:54:13;98997.78;;;4.43;81.05
66880;BME280;53789;51.392;10.234;2023-01-04T00:54:34;99011.66;;;4.42;81.62
66880;BME280;53789;51.392;10.234;2023-01-04T00:54:54;98995.78;;;4.39;81.45
66880;BME280;53789;51.392;10.234;2023-01-04T00:55:15;99001.00;;;4.40;81.45
66880;BME280;53789;51.392;10.234;2023-01-04T00:55:35;98999.91;;;4.41;81.32
66880;BME280;53789;51.392;10.234;2023-01-04T00:55:59;99003.94;;;4.39;81.27
66880;BME280;53789;51.392;10.234;2023-01-04T00:56:20;99011.31;;;4.38;80.98
66880;BME280;53789;51.392;10.234;2023-01-04T00:56:40;98994.97;;;4.38;81.65
66880;BME280;53789;51.392;10.234;2023-01-04T00:57:01;98997.44;;;4.40;81.71
66880;BME280;53789;51.392;10.234;2023-01-04T00:57:21;99001.22;;;4.39;82.17
66880;BME280;53789;51.392;10.234;2023-01-04T00:57:41;98990.56;;;4.37;81.57
66880;BME280;53789;51.392;10.234;2023-01-04T00:58:02;99001.47;;;4.37;81.53
66880;BME280;53789;51.392;10.234;2023-01-04T00:58:22;98988.69;;;4.38;81.88
66880;BME280;53789;51.392;10.234;2023-01-04T00:58:43;98990.31;;;4.39;81.58
66880;BME280;53789;51.392;10.234;2023-01-04T00:59:03;98986.78;;;4.38;81.43
66880;BME280;53789;51.392;10.234;2023-01-04T00:59:24;98990.31;;;4.39;81.52
66880;BME280;53789;51.392;10.234;2023-01-04T00:59:44;98993.91;;;4.39;81.38
66880;BME280;53789;51.392;10.234;2023-01-04T01:00:05;98985.97;;;4.38;81.17
66880;BME280;53789;51.392;10.234;2023-01-04T01:00:26;98993.91;;;4.39;81.55
66880;BME280;53789;51.392;10.234;2023-01-04T01:00:46;98993.91;;;4.39;81.42
66880;BME280;53789;51.392;10.234;2023-01-04T01:01:07;99000.41;;;4.38;81.26
66880;BME280;53789;51.392;10.234;2023-01-04T01:01:29;98987.84;;;4.37;81.49
66880;BME280;53789;51.392;10.234;2023-01-04T01:01:50;99005.03;;;4.38;81.54
66880;BME280;53789;51.392;10.234;2023-01-04T01:02:10;98987.59;;;4.39;81.43
66880;BME280;53789;51.392;10.234;2023-01-04T01:02:30;98997.94;;;4.37;81.52
66880;BME280;53789;51.392;10.234;2023-01-04T01:02:51;98988.44;;;4.39;81.54
66880;BME280;53789;51.392;10.234;2023-01-04T01:03:11;99001.00;;;4.40;81.00
66880;BME280;53789;51.392;10.234;2023-01-04T01:03:32;99003.94;;;4.39;81.23
66880;BME280;53789;51.392;10.234;2023-01-04T01:03:53;98996.63;;;4.39;81.59
66880;BME280;53789;51.392;10.234;2023-01-04T01:04:16;98993.06;;;4.39;81.57
66880;BME280;53789;51.392;10.234;2023-01-04T01:04:37;98998.28;;;4.40;81.41
66880;BME280;53789;51.392;10.234;2023-01-04T01:04:57;98989.00;;;4.41;81.44
66880;BME280;53789;51.392;10.234;2023-01-04T01:05:17;98995.56;;;4.40;81.23
66880;BME280;53789;51.392;10.234;2023-01-04T01:05:38;98990.69;;;4.42;81.63
66880;BME280;53789;51.392;10.234;2023-01-04T01:06:05;98999.09;;;4.41;81.46
66880;BME280;53789;51.392;10.234;2023-01-04T01:06:27;98991.75;;;4.41;82.17
66880;BME280;53789;51.392;10.234;2023-01-04T01:06:49;98992.84;;;4.40;81.52
66880;BME280;53789;51.392;10.234;2023-01-04T01:07:09;99007.28;;;4.41;81.47
66880;BME280;53789;51.392;10.234;2023-01-04T01:07:29;99016.25;;;4.41;81.15
66880;BME280;53789;51.392;10.234;2023-01-04T01:07:50;98997.44;;;4.40;81.71
66880;BME280;53789;51.392;10.234;2023-01-04T01:08:10;99006.47;;;4.40;82.01
66880;BME280;53789;51.392;10.234;2023-01-04T01:08:34;98998.03;;;4.42;81.49
66880;BME280;53789;51.392;10.234;2023-01-04T01:08:54;98993.66;;;4.41;81.56
66880;BME280;53789;51.392;10.234;2023-01-04T01:09:15;99001.56;;;4.42;81.69
66880;BME280;53789;51.392;10.234;2023-01-04T01:09:35;98996.63;;;4.39;81.34
66880;BME280;53789;51.392;10.234;2023-01-04T01:09:56;98996.63;;;4.39;81.49
66880;BME280;53789;51.392;10.234;2023-01-04T01:10:16;98990.94;;;4.41;81.28
66880;BME280;53789;51.392;10.234;2023-01-04T01:10:36;98994.47;;;4.41;81.69
66880;BME280;53789;51.392;10.234;2023-01-04T01:11:03;98995.31;;;4.42;81.31
66880;BME280;53789;51.392;10.234;2023-01-04T01:11:24;98993.91;;;4.39;81.74
66880;BME280;53789;51.392;10.234;2023-01-04T01:11:45;98993.66;;;4.41;81.48
66880;BME280;53789;51.392;10.234;2023-01-04T01:12:05;98994.47;;;4.41;81.79
66880;BME280;53789;51.392;10.234;2023-01-04T01:12:25;98993.66;;;4.41;81.41
66880;BME280;53789;51.392;10.234;2023-01-04T01:12:46;98986.88;;;4.43;81.56
66880;BME280;53789;51.392;10.234;2023-01-04T01:13:06;98995.88;;;4.44;81.33
66880;BME280;53789;51.392;10.234;2023-01-04T01:13:26;98987.94;;;4.42;81.43
66880;BME280;53789;51.392;10.234;2023-01-04T01:13:47;98982.25;;;4.44;81.50
66880;BME280;53789;51.392;10.234;2023-01-04T01:14:15;98982.75;;;4.41;81.49
66880;BME280;53789;51.392;10.234;2023-01-04T01:14:36;98993.66;;;4.41;81.29
66880;BME280;53789;51.392;10.234;2023-01-04T01:14:56;98983.25;;;4.38;81.19
66880;BME280;53789;51.392;10.234;2023-01-04T01:15:16;98984.06;;;4.38;81.33
66880;BME280;53789;51.392;10.234;2023-01-04T01:15:36;98988.69;;;4.38;81.91
66880;BME280;53789;51.392;10.234;2023-01-04T01:16:02;98985.13;;;4.37;81.65
66880;BME280;53789;51.392;10.234;2023-01-04T01:16:23;98978.63;;;4.38;81.65
66880;BME280;53789;51.392;10.234;2023-01-04T01:16:45;98982.16;;;4.39;81.34
66880;BME280;53789;51.392;10.234;2023-01-04T01:17:05;98970.44;;;4.38;81.13
66880;BME280;53789;51.392;10.234;2023-01-04T01:17:25;98979.22;;;4.40;80.97
66880;BME280;53789;51.392;10.234;2023-01-04T01:17:46;98976.50;;;4.40;81.35
66880;BME280;53789;51.392;10.234;2023-01-04T01:18:06;98987.59;;;4.39;81.36
66880;BME280;53789;51.392;10.234;2023-01-04T01:18:28;98982.16;;;4.39;81.55
66880;BME280;53789;51.392;10.234;2023-01-04T01:18:49;98960.38;;;4.39;81.47
66880;BME280;53789;51.392;10.234;2023-01-04T01:19:09;98975.41;;;4.41;81.58
66880;BME280;53789;51.392;10.234;2023-01-04T01:19:30;98976.50;;;4.40;81.63
66880;BME280;53789;51.392;10.234;2023-01-04T01:19:50;98971.59;;;4.42;81.24
66880;BME280;53789;51.392;10.234;2023-01-04T01:20:10;98980.03;;;4.41;81.27
66880;BME280;53789;51.392;10.234;2023-01-04T01:20:31;98966.41;;;4.41;81.56
66880;BME280;53789;51.392;10.234;2023-01-04T01:20:51;98966.16;;;4.42;81.26
66880;BME280;53789;51.392;10.234;2023-01-04T01:21:23;98972.16;;;4.44;81.28
66880;BME280;53789;51.392;10.234;2023-01-04T01:21:44;98965.91;;;4.44;81.46
66880;BME280;53789;51.392;10.234;2023-01-04T01:22:04;98973.03;;;4.45;81.30
66880;BME280;53789;51.392;10.234;2023-01-04T01:22:25;98970.53;;;4.43;81.74
66880;BME280;53789;51.392;10.234;2023-01-04T01:22:46;98978.47;;;4.45;81.15
66880;BME280;53789;51.392;10.234;2023-01-04T01:23:06;98970.28;;;4.45;81.21
66880;BME280;53789;51.392;10.234;2023-01-04T01:23:26;98968.38;;;4.45;81.55
66880;BME280;53789;51.392;10.234;2023-01-04T01:23:48;98970.53;;;4.43;80.88
66880;BME280;53789;51.392;10.234;2023-01-04T01:24:16;98969.44;;;4.44;81.42
66880;BME280;53789;51.392;10.234;2023-01-04T01:24:36;98964.84;;;4.45;81.23
66880;BME280;53789;51.392;10.234;2023-01-04T01:24:57;98982.81;;;4.46;81.30
66880;BME280;53789;51.392;10.234;2023-01-04T01:25:17;98974.09;;;4.44;81.24
66880;BME280;53789;51.392;10.234;2023-01-04T01:25:37;98962.94;;;4.45;81.04
66880;BME280;53789;51.392;10.234;2023-01-04T01:26:07;98970.28;;;4.45;81.59
66880;BME280;53789;51.392;10.234;2023-01-04T01:26:28;98971.69;;;4.48;81.20
66880;BME280;53789;51.392;10.234;2023-01-04T01:26:48;98968.38;;;4.45;81.19
66880;BME280;53789;51.392;10.234;2023-01-04T01:27:09;98963.75;;;4.46;80.83
66880;BME280;53789;51.392;10.234;2023-01-04T01:27:29;98989.13;;;4.47;80.99
66880;BME280;53789;51.392;10.234;2023-01-04T01:27:49;98963.50;;;4.48;81.01
66880;BME280;53789;51.392;10.234;2023-01-04T01:28:10;98964.34;;;4.48;81.05
66880;BME280;53789;51.392;10.234;2023-01-04T01:28:32;98962.13;;;4.45;81.04
66880;BME280;53789;51.392;10.234;2023-01-04T01:28:52;98962.69;;;4.47;81.33
66880;BME280;53789;51.392;10.234;2023-01-04T01:29:13;98969.44;;;4.44;81.22
66880;BME280;53789;51.392;10.234;2023-01-04T01:29:33;98975.75;;;4.45;81.44
66880;BME280;53789;51.392;10.234;2023-01-04T01:29:54;98969.19;;;4.46;81.35
66880;BME280;53789;51.392;10.234;2023-01-04T01:30:14;98985.53;;;4.46;81.34
66880;BME280;53789;51.392;10.234;2023-01-04T01:30:39;98972.78;;;4.47;81.36
66880;BME280;53789;51.392;10.234;2023-01-04T01:31:08;98962.44;;;4.49;81.19
66880;BME280;53789;51.392;10.234;2023-01-04T01:31:29;98965.72;;;4.51;80.87
66880;BME280;53789;51.392;10.234;2023-01-04T01:31:49;98967.38;;;4.52;81.28
66880;BME280;53789;51.392;10.234;2023-01-04T01:32:09;98969.28;;;4.51;80.78
66880;BME280;53789;51.392;10.234;2023-01-04T01:32:30;98967.38;;;4.52;80.90
66880;BME280;53789;51.392;10.234;2023-01-04T01:32:50;98974.50;;;4.53;80.83
66880;BME280;53789;51.392;10.234;2023-01-04T01:33:10;98963.59;;;4.53;80.71
66880;BME280;53789;51.392;10.234;2023-01-04T01:33:30;98949.16;;;4.52;81.05
66880;BME280;53789;51.392;10.234;2023-01-04T01:33:53;98965.50;;;4.52;80.44
66880;BME280;53789;51.392;10.234;2023-01-04T01:34:13;98966.56;;;4.51;80.88
66880;BME280;53789;51.392;10.234;2023-01-04T01:34:34;98978.28;;;4.52;80.81
66880;BME280;53789;51.392;10.234;2023-01-04T01:34:54;98971.19;;;4.51;80.91
66880;BME280;53789;51.392;10.234;2023-01-04T01:35:15;98963.00;;;4.51;80.92
66880;BME280;53789;51.392;10.234;2023-01-04T01:35:35;98973.69;;;4.52;80.88
66880;BME280;53789;51.392;10.234;2023-01-04T01:35:59;98967.63;;;4.50;81.01
66880;BME280;53789;51.392;10.234;2023-01-04T01:36:22;98990.25;;;4.51;80.76
66880;BME280;53789;51.392;10.234;2023-01-04T01:36:43;98964.34;;;4.48;81.03
66880;BME280;53789;51.392;10.234;2023-01-04T01:37:03;98969.53;;;4.50;80.88
66880;BME280;53789;51.392;10.234;2023-01-04T01:37:23;98964.91;;;4.50;81.05
66880;BME280;53789;51.392;10.234;2023-01-04T01:37:44;98968.69;;;4.49;81.23
66880;BME280;53789;51.392;10.234;2023-01-04T01:38:04;98960.28;;;4.51;81.10
66880;BME280;53789;51.392;10.234;2023-01-04T01:38:24;98955.41;;;4.53;81.11
66880;BME280;53789;51.392;10.234;2023-01-04T01:38:45;98960.06;;;4.52;81.31
66880;BME280;53789;51.392;10.234;2023-01-04T01:39:05;98967.38;;;4.52;80.91
66880;BME280;53789;51.392;10.234;2023-01-04T01:39:25;98952.09;;;4.51;80.78
66880;BME280;53789;51.392;10.234;2023-01-04T01:39:46;98956.50;;;4.52;81.06
66880;BME280;53789;51.392;10.234;2023-01-04T01:40:07;98961.94;;;4.52;81.01
66880;BME280;53789;51.392;10.234;2023-01-04T01:40:27;98958.66;;;4.50;80.81
66880;BME280;53789;51.392;10.234;2023-01-04T01:40:48;98951.28;;;4.50;80.86
66880;BME280;53789;51.392;10.234;2023-01-04T01:41:18;98965.72;;;4.51;80.77
66880;BME280;53789;51.392;10.234;2023-01-04T01:41:38;98961.13;;;4.51;81.31
66880;BME280;53789;51.392;10.234;2023-01-04T01:41:59;98954.00;;;4.50;80.80
66880;BME280;53789;51.392;10.234;2023-01-04T01:42:20;98967.88;;;4.49;80.96
66880;BME280;53789;51.392;10.234;2023-01-04T01:42:40;98953.19;;;4.50;80.71
66880;BME280;53789;51.392;10.234;2023-01-04T01:43:01;98958.41;;;4.51;81.30
66880;BME280;53789;51.392;10.234;2023-01-04T01:43:43;98960.88;;;4.53;80.96
66880;BME280;53789;51.392;10.234;2023-01-04T01:44:46;98952.69;;;4.53;80.97
66880;BME280;53789;51.392;10.234;2023-01-04T01:45:23;98961.94;;;4.52;80.82
66880;BME280;53789;51.392;10.234;2023-01-04T01:45:52;98963.00;;;4.51;80.94
66880;BME280;53789;51.392;10.234;2023-01-04T01:46:21;98954.59;;;4.52;80.52
66880;BME280;53789;51.392;10.234;2023-01-04T01:46:46;98962.53;;;4.54;80.70
66880;BME280;53789;51.392;10.234;2023-01-04T01:47:47;98961.94;;;4.52;80.92
66880;BME280;53789;51.392;10.234;2023-01-04T01:48:09;98959.81;;;4.54;80.89
66880;BME280;53789;51.392;10.234;2023-01-04T01:48:30;98954.34;;;4.54;80.95
66880;BME280;53789;51.392;10.234;2023-01-04T01:49:01;98956.50;;;4.52;80.85
66880;BME280;53789;51.392;10.234;2023-01-04T01:49:31;98945.84;;;4.50;80.95
66880;BME280;53789;51.392;10.234;2023-01-04T01:49:53;98960.88;;;4.53;80.78
66880;BME280;53789;51.392;10.234;2023-01-04T01:50:25;98938.81;;;4.54;81.46
66880;BME280;53789;51.392;10.234;2023-01-04T01:50:53;98948.91;;;4.54;80.80
66880;BME280;53789;51.392;10.234;2023-01-04T01:51:17;98945.34;;;4.53;81.06
66880;BME280;53789;51.392;10.234;2023-01-04T01:51:40;98953.50;;;4.53;81.19
66880;BME280;53789;51.392;10.234;2023-01-04T01:52:05;98948.91;;;4.54;80.91
66880;BME280;53789;51.392;10.234;2023-01-04T01:52:31;98952.09;;;4.51;80.94
66880;BME280;53789;51.392;10.234;2023-01-04T01:52:57;98937.66;;;4.50;80.84
66880;BME280;53789;51.392;10.234;2023-01-04T01:53:20;98941.19;;;4.51;80.83
66880;BME280;53789;51.392;10.234;2023-01-04T01:53:45;98953.19;;;4.50;80.44
66880;BME280;53789;51.392;10.234;2023-01-04T01:54:22;98945.03;;;4.50;81.13
66880;BME280;53789;51.392;10.234;2023-01-04T01:54:57;98943.94;;;4.51;81.05
66880;BME280;53789;51.392;10.234;2023-01-04T01:55:18;98943.13;;;4.50;80.77